sensor_id;sensor_type;location;lat;lon;timestamp;P1;durP1;ratioP1;P2;durP2;ratioP2
41815;SDS011;27814;53.452;-6.180;2022-11-06T00:00:33;12.47;;;2.60;;
41815;SDS011;27814;53.452;-6.180;2022-11-06T00:03:02;13.68;;;2.40;;
41815;SDS011;27814;53.452;-6.180;2022-11-06T00:05:31;13.77;;;2.50;;
41815;SDS011;27814;53.452;-6.180;2022-11-06T00:08:26;15.03;;;3.00;;
41815;SDS011;27814;53.452;-6.180;2022-11-06T00:10:56;15.23;;;2.70;;
41815;SDS011;27814;53.452;-6.180;2022-11-06T00:13:24;12.45;;;2.45;;
41815;SDS011;27814;53.452;-6.180;2022-11-06T00:15:53;15.60;;;2.80;;
41815;SDS011;27814;53.452;-6.180;2022-11-06T00:18:24;15.73;;;2.80;;
41815;SDS011;27814;53.452;-6.180;2022-11-06T00:20:53;13.15;;;2.60;;
41815;SDS011;27814;53.452;-6.180;2022-11-06T00:23:22;13.00;;;2.53;;
41815;SDS011;27814;53.452;-6.180;2022-11-06T00:25:51;19.58;;;2.60;;
41815;SDS011;27814;53.452;-6.180;2022-11-06T00:28:22;12.02;;;2.55;;
41815;SDS011;27814;53.452;-6.180;2022-11-06T00:30:50;15.95;;;2.78;;
41815;SDS011;27814;53.452;-6.180;2022-11-06T00:33:26;14.77;;;2.10;;
41815;SDS011;27814;53.452;-6.180;2022-11-06T00:35:54;12.40;;;2.47;;
41815;SDS011;27814;53.452;-6.180;2022-11-06T00:38:23;10.63;;;2.22;;
41815;SDS011;27814;53.452;-6.180;2022-11-06T00:40:53;12.27;;;2.90;;
41815;SDS011;27814;53.452;-6.180;2022-11-06T00:43:21;19.05;;;2.65;;
41815;SDS011;27814;53.452;-6.180;2022-11-06T00:45:49;13.57;;;2.58;;
41815;SDS011;27814;53.452;-6.180;2022-11-06T00:48:17;14.27;;;2.33;;
41815;SDS011;27814;53.452;-6.180;2022-11-06T00:50:46;10.63;;;2.13;;
41815;SDS011;27814;53.452;-6.180;2022-11-06T00:53:14;12.60;;;2.08;;
41815;SDS011;27814;53.452;-6.180;2022-11-06T00:55:42;14.50;;;2.55;;
41815;SDS011;27814;53.452;-6.180;2022-11-06T00:58:12;14.60;;;2.35;;
41815;SDS011;27814;53.452;-6.180;2022-11-06T01:00:41;8.52;;;1.90;;
41815;SDS011;27814;53.452;-6.180;2022-11-06T01:03:09;14.43;;;2.28;;
41815;SDS011;27814;53.452;-6.180;2022-11-06T01:05:37;11.57;;;2.07;;
41815;SDS011;27814;53.452;-6.180;2022-11-06T01:08:07;17.05;;;2.70;;
41815;SDS011;27814;53.452;-6.180;2022-11-06T01:10:35;14.23;;;2.00;;
41815;SDS011;27814;53.452;-6.180;2022-11-06T01:13:04;10.85;;;2.00;;
41815;SDS011;27814;53.452;-6.180;2022-11-06T01:15:35;14.55;;;2.22;;
41815;SDS011;27814;53.452;-6.180;2022-11-06T01:18:03;11.68;;;2.38;;
41815;SDS011;27814;53.452;-6.180;2022-11-06T01:20:32;10.38;;;1.73;;
41815;SDS011;27814;53.452;-6.180;2022-11-06T01:23:00;8.60;;;1.55;;
41815;SDS011;27814;53.452;-6.180;2022-11-06T01:25:29;14.32;;;2.47;;
41815;SDS011;27814;53.452;-6.180;2022-11-06T01:27:57;12.75;;;1.73;;
41815;SDS011;27814;53.452;-6.180;2022-11-06T01:30:25;11.77;;;2.25;;
41815;SDS011;27814;53.452;-6.180;2022-11-06T01:32:55;12.60;;;2.20;;
41815;SDS011;27814;53.452;-6.180;2022-11-06T01:35:23;12.30;;;1.75;;
41815;SDS011;27814;53.452;-6.180;2022-11-06T01:37:52;15.27;;;2.03;;
41815;SDS011;27814;53.452;-6.180;2022-11-06T01:40:20;15.02;;;2.10;;
41815;SDS011;27814;53.452;-6.180;2022-11-06T01:42:48;9.85;;;1.90;;
41815;SDS011;27814;53.452;-6.180;2022-11-06T01:45:22;9.48;;;1.80;;
41815;SDS011;27814;53.452;-6.180;2022-11-06T01:47:55;10.95;;;2.08;;
41815;SDS011;27814;53.452;-6.180;2022-11-06T01:50:23;10.77;;;1.83;;
41815;SDS011;27814;53.452;-6.180;2022-11-06T01:52:52;12.00;;;2.05;;
41815;SDS011;27814;53.452;-6.180;2022-11-06T01:55:22;10.73;;;2.10;;
41815;SDS011;27814;53.452;-6.180;2022-11-06T01:57:52;10.75;;;2.05;;
41815;SDS011;27814;53.452;-6.180;2022-11-06T02:00:21;8.35;;;1.83;;
41815;SDS011;27814;53.452;-6.180;2022-11-06T02:02:51;13.38;;;2.05;;
41815;SDS011;27814;53.452;-6.180;2022-11-06T02:05:21;11.27;;;2.13;;
41815;SDS011;27814;53.452;-6.180;2022-11-06T02:07:49;10.73;;;1.85;;
41815;SDS011;27814;53.452;-6.180;2022-11-06T02:10:19;8.73;;;1.83;;
41815;SDS011;27814;53.452;-6.180;2022-11-06T02:12:53;13.50;;;1.77;;
41815;SDS011;27814;53.452;-6.180;2022-11-06T02:15:33;10.50;;;2.10;;
41815;SDS011;27814;53.452;-6.180;2022-11-06T02:21:29;11.20;;;1.55;;
41815;SDS011;27814;53.452;-6.180;2022-11-06T02:24:18;11.88;;;1.70;;
41815;SDS011;27814;53.452;-6.180;2022-11-06T02:27:08;10.30;;;2.07;;
41815;SDS011;27814;53.452;-6.180;2022-11-06T02:29:41;9.38;;;2.30;;
41815;SDS011;27814;53.452;-6.180;2022-11-06T02:32:15;9.77;;;1.83;;
41815;SDS011;27814;53.452;-6.180;2022-11-06T02:34:48;12.88;;;1.95;;
41815;SDS011;27814;53.452;-6.180;2022-11-06T02:37:20;11.10;;;1.60;;
41815;SDS011;27814;53.452;-6.180;2022-11-06T02:39:54;9.77;;;1.77;;
41815;SDS011;27814;53.452;-6.180;2022-11-06T02:42:28;8.32;;;1.60;;
41815;SDS011;27814;53.452;-6.180;2022-11-06T02:44:58;11.90;;;1.63;;
41815;SDS011;27814;53.452;-6.180;2022-11-06T02:47:28;13.20;;;2.03;;
41815;SDS011;27814;53.452;-6.180;2022-11-06T02:50:02;11.27;;;1.52;;
41815;SDS011;27814;53.452;-6.180;2022-11-06T02:52:33;7.97;;;1.43;;
41815;SDS011;27814;53.452;-6.180;2022-11-06T02:55:07;8.48;;;1.33;;
41815;SDS011;27814;53.452;-6.180;2022-11-06T02:57:41;10.18;;;1.48;;
41815;SDS011;27814;53.452;-6.180;2022-11-06T03:00:12;5.68;;;1.40;;
41815;SDS011;27814;53.452;-6.180;2022-11-06T03:02:43;4.07;;;0.90;;
41815;SDS011;27814;53.452;-6.180;2022-11-06T03:05:16;6.20;;;1.02;;
41815;SDS011;27814;53.452;-6.180;2022-11-06T03:07:51;7.88;;;1.17;;
41815;SDS011;27814;53.452;-6.180;2022-11-06T03:10:23;6.70;;;1.05;;
41815;SDS011;27814;53.452;-6.180;2022-11-06T03:13:06;7.00;;;0.90;;
41815;SDS011;27814;53.452;-6.180;2022-11-06T03:15:42;7.45;;;1.23;;
41815;SDS011;27814;53.452;-6.180;2022-11-06T03:18:15;6.00;;;1.17;;
41815;SDS011;27814;53.452;-6.180;2022-11-06T03:20:53;8.27;;;1.20;;
41815;SDS011;27814;53.452;-6.180;2022-11-06T03:23:31;4.72;;;1.23;;
41815;SDS011;27814;53.452;-6.180;2022-11-06T03:26:04;7.82;;;1.20;;
41815;SDS011;27814;53.452;-6.180;2022-11-06T03:28:42;9.55;;;1.23;;
41815;SDS011;27814;53.452;-6.180;2022-11-06T03:31:18;11.50;;;1.90;;
41815;SDS011;27814;53.452;-6.180;2022-11-06T03:33:53;9.50;;;1.30;;
41815;SDS011;27814;53.452;-6.180;2022-11-06T03:36:28;9.13;;;2.20;;
41815;SDS011;27814;53.452;-6.180;2022-11-06T03:39:00;7.43;;;1.53;;
41815;SDS011;27814;53.452;-6.180;2022-11-06T03:41:34;10.07;;;1.25;;
41815;SDS011;27814;53.452;-6.180;2022-11-06T03:44:10;5.65;;;1.30;;
41815;SDS011;27814;53.452;-6.180;2022-11-06T03:46:43;11.20;;;2.15;;
41815;SDS011;27814;53.452;-6.180;2022-11-06T03:49:15;12.10;;;1.63;;
41815;SDS011;27814;53.452;-6.180;2022-11-06T03:51:49;7.18;;;1.23;;
41815;SDS011;27814;53.452;-6.180;2022-11-06T03:54:24;9.57;;;1.50;;
41815;SDS011;27814;53.452;-6.180;2022-11-06T03:56:56;12.30;;;1.52;;
41815;SDS011;27814;53.452;-6.180;2022-11-06T03:59:30;6.10;;;1.48;;
41815;SDS011;27814;53.452;-6.180;2022-11-06T04:02:02;6.78;;;1.13;;
41815;SDS011;27814;53.452;-6.180;2022-11-06T04:04:31;10.38;;;1.67;;
41815;SDS011;27814;53.452;-6.180;2022-11-06T04:07:05;8.15;;;1.67;;
41815;SDS011;27814;53.452;-6.180;2022-11-06T04:09:37;6.95;;;1.10;;
41815;SDS011;27814;53.452;-6.180;2022-11-06T04:12:26;7.03;;;1.07;;
41815;SDS011;27814;53.452;-6.180;2022-11-06T04:15:16;7.13;;;1.15;;
41815;SDS011;27814;53.452;-6.180;2022-11-06T04:17:46;6.78;;;1.25;;
41815;SDS011;27814;53.452;-6.180;2022-11-06T04:20:15;3.15;;;1.02;;
41815;SDS011;27814;53.452;-6.180;2022-11-06T04:23:04;7.00;;;1.20;;
41815;SDS011;27814;53.452;-6.180;2022-11-06T04:25:43;6.22;;;1.05;;
41815;SDS011;27814;53.452;-6.180;2022-11-06T04:28:42;7.35;;;0.82;;
41815;SDS011;27814;53.452;-6.180;2022-11-06T04:31:21;6.32;;;1.02;;
41815;SDS011;27814;53.452;-6.180;2022-11-06T04:33:57;6.97;;;0.85;;
41815;SDS011;27814;53.452;-6.180;2022-11-06T04:36:33;7.53;;;1.20;;
41815;SDS011;27814;53.452;-6.180;2022-11-06T04:39:11;5.32;;;0.95;;
41815;SDS011;27814;53.452;-6.180;2022-11-06T04:41:46;4.93;;;0.70;;
41815;SDS011;27814;53.452;-6.180;2022-11-06T04:44:22;5.23;;;0.90;;
41815;SDS011;27814;53.452;-6.180;2022-11-06T04:46:56;4.60;;;1.10;;
41815;SDS011;27814;53.452;-6.180;2022-11-06T04:49:26;5.22;;;0.60;;
41815;SDS011;27814;53.452;-6.180;2022-11-06T04:51:59;3.85;;;0.70;;
41815;SDS011;27814;53.452;-6.180;2022-11-06T04:54:30;5.90;;;1.17;;
41815;SDS011;27814;53.452;-6.180;2022-11-06T04:56:59;6.25;;;1.08;;
41815;SDS011;27814;53.452;-6.180;2022-11-06T04:59:29;2.95;;;0.60;;
41815;SDS011;27814;53.452;-6.180;2022-11-06T05:02:04;2.88;;;0.50;;
41815;SDS011;27814;53.452;-6.180;2022-11-06T05:04:33;2.95;;;0.60;;
41815;SDS011;27814;53.452;-6.180;2022-11-06T05:07:01;3.67;;;0.60;;
41815;SDS011;27814;53.452;-6.180;2022-11-06T05:09:30;2.70;;;0.50;;
41815;SDS011;27814;53.452;-6.180;2022-11-06T05:11:58;4.00;;;0.95;;
41815;SDS011;27814;53.452;-6.180;2022-11-06T05:14:26;1.98;;;0.43;;
41815;SDS011;27814;53.452;-6.180;2022-11-06T05:16:55;3.85;;;0.50;;
41815;SDS011;27814;53.452;-6.180;2022-11-06T05:19:24;2.90;;;0.47;;
41815;SDS011;27814;53.452;-6.180;2022-11-06T05:21:53;1.70;;;0.43;;
41815;SDS011;27814;53.452;-6.180;2022-11-06T05:24:38;4.50;;;1.20;;
41815;SDS011;27814;53.452;-6.180;2022-11-06T05:27:06;3.83;;;0.60;;
41815;SDS011;27814;53.452;-6.180;2022-11-06T05:29:35;3.75;;;0.68;;
41815;SDS011;27814;53.452;-6.180;2022-11-06T05:32:03;2.38;;;0.60;;
41815;SDS011;27814;53.452;-6.180;2022-11-06T05:34:33;3.97;;;0.63;;
41815;SDS011;27814;53.452;-6.180;2022-11-06T05:37:01;2.72;;;0.60;;
41815;SDS011;27814;53.452;-6.180;2022-11-06T05:39:30;4.40;;;0.70;;
41815;SDS011;27814;53.452;-6.180;2022-11-06T05:42:04;2.60;;;0.35;;
41815;SDS011;27814;53.452;-6.180;2022-11-06T05:44:32;3.08;;;0.60;;
41815;SDS011;27814;53.452;-6.180;2022-11-06T05:47:01;3.05;;;0.60;;
41815;SDS011;27814;53.452;-6.180;2022-11-06T05:49:29;4.80;;;0.80;;
41815;SDS011;27814;53.452;-6.180;2022-11-06T05:51:58;5.10;;;0.77;;
41815;SDS011;27814;53.452;-6.180;2022-11-06T05:54:27;3.63;;;0.60;;
41815;SDS011;27814;53.452;-6.180;2022-11-06T05:56:55;5.45;;;0.70;;
41815;SDS011;27814;53.452;-6.180;2022-11-06T05:59:23;5.15;;;0.60;;
41815;SDS011;27814;53.452;-6.180;2022-11-06T06:01:52;3.75;;;0.55;;
41815;SDS011;27814;53.452;-6.180;2022-11-06T06:04:20;3.10;;;0.80;;
41815;SDS011;27814;53.452;-6.180;2022-11-06T06:06:48;2.97;;;0.50;;
41815;SDS011;27814;53.452;-6.180;2022-11-06T06:09:18;2.35;;;0.50;;
41815;SDS011;27814;53.452;-6.180;2022-11-06T06:11:49;3.42;;;0.90;;
41815;SDS011;27814;53.452;-6.180;2022-11-06T06:14:18;2.65;;;0.55;;
41815;SDS011;27814;53.452;-6.180;2022-11-06T06:16:47;3.45;;;0.60;;
41815;SDS011;27814;53.452;-6.180;2022-11-06T06:19:15;3.60;;;0.77;;
41815;SDS011;27814;53.452;-6.180;2022-11-06T06:21:43;3.13;;;0.60;;
41815;SDS011;27814;53.452;-6.180;2022-11-06T06:24:11;5.85;;;0.75;;
41815;SDS011;27814;53.452;-6.180;2022-11-06T06:26:41;3.40;;;0.63;;
41815;SDS011;27814;53.452;-6.180;2022-11-06T06:29:09;4.55;;;0.70;;
41815;SDS011;27814;53.452;-6.180;2022-11-06T06:31:38;6.15;;;0.70;;
41815;SDS011;27814;53.452;-6.180;2022-11-06T06:34:06;2.20;;;0.50;;
41815;SDS011;27814;53.452;-6.180;2022-11-06T06:36:35;5.82;;;1.20;;
41815;SDS011;27814;53.452;-6.180;2022-11-06T06:39:03;6.55;;;1.00;;
41815;SDS011;27814;53.452;-6.180;2022-11-06T06:41:31;6.43;;;0.88;;
41815;SDS011;27814;53.452;-6.180;2022-11-06T06:44:01;4.70;;;0.80;;
41815;SDS011;27814;53.452;-6.180;2022-11-06T06:46:30;4.47;;;0.80;;
41815;SDS011;27814;53.452;-6.180;2022-11-06T06:48:58;6.00;;;0.82;;
41815;SDS011;27814;53.452;-6.180;2022-11-06T06:51:26;8.30;;;1.20;;
41815;SDS011;27814;53.452;-6.180;2022-11-06T06:53:55;6.78;;;0.98;;
41815;SDS011;27814;53.452;-6.180;2022-11-06T06:56:23;7.40;;;1.20;;
41815;SDS011;27814;53.452;-6.180;2022-11-06T06:58:54;7.78;;;1.00;;
41815;SDS011;27814;53.452;-6.180;2022-11-06T07:01:24;8.25;;;1.00;;
41815;SDS011;27814;53.452;-6.180;2022-11-06T07:03:52;5.03;;;0.90;;
41815;SDS011;27814;53.452;-6.180;2022-11-06T07:06:28;5.45;;;1.00;;
41815;SDS011;27814;53.452;-6.180;2022-11-06T07:08:56;4.15;;;1.05;;
41815;SDS011;27814;53.452;-6.180;2022-11-06T07:11:24;5.38;;;0.80;;
41815;SDS011;27814;53.452;-6.180;2022-11-06T07:13:53;6.38;;;1.10;;
41815;SDS011;27814;53.452;-6.180;2022-11-06T07:16:21;7.53;;;1.45;;
41815;SDS011;27814;53.452;-6.180;2022-11-06T07:18:52;7.93;;;1.33;;
41815;SDS011;27814;53.452;-6.180;2022-11-06T07:21:20;8.07;;;1.10;;
41815;SDS011;27814;53.452;-6.180;2022-11-06T07:23:48;5.85;;;0.88;;
41815;SDS011;27814;53.452;-6.180;2022-11-06T07:26:17;4.80;;;1.02;;
41815;SDS011;27814;53.452;-6.180;2022-11-06T07:28:45;8.80;;;1.67;;
41815;SDS011;27814;53.452;-6.180;2022-11-06T07:31:13;10.18;;;1.73;;
41815;SDS011;27814;53.452;-6.180;2022-11-06T07:33:42;6.28;;;1.05;;
41815;SDS011;27814;53.452;-6.180;2022-11-06T07:36:12;8.98;;;1.10;;
41815;SDS011;27814;53.452;-6.180;2022-11-06T07:38:40;8.27;;;1.20;;
41815;SDS011;27814;53.452;-6.180;2022-11-06T07:41:10;5.32;;;1.20;;
41815;SDS011;27814;53.452;-6.180;2022-11-06T07:43:39;4.07;;;0.88;;
41815;SDS011;27814;53.452;-6.180;2022-11-06T07:46:09;5.30;;;1.40;;
41815;SDS011;27814;53.452;-6.180;2022-11-06T07:48:38;10.90;;;1.63;;
41815;SDS011;27814;53.452;-6.180;2022-11-06T07:51:08;9.60;;;1.58;;
41815;SDS011;27814;53.452;-6.180;2022-11-06T07:53:38;8.30;;;1.20;;
41815;SDS011;27814;53.452;-6.180;2022-11-06T07:56:07;8.98;;;1.27;;
41815;SDS011;27814;53.452;-6.180;2022-11-06T07:58:36;6.57;;;1.30;;
41815;SDS011;27814;53.452;-6.180;2022-11-06T08:01:04;5.32;;;1.20;;
41815;SDS011;27814;53.452;-6.180;2022-11-06T08:03:33;7.63;;;1.20;;
41815;SDS011;27814;53.452;-6.180;2022-11-06T08:06:02;10.70;;;1.13;;
41815;SDS011;27814;53.452;-6.180;2022-11-06T08:08:31;7.85;;;1.20;;
41815;SDS011;27814;53.452;-6.180;2022-11-06T08:11:01;8.43;;;1.00;;
41815;SDS011;27814;53.452;-6.180;2022-11-06T08:13:30;7.80;;;1.25;;
41815;SDS011;27814;53.452;-6.180;2022-11-06T08:16:04;9.35;;;1.45;;
41815;SDS011;27814;53.452;-6.180;2022-11-06T08:18:34;8.88;;;1.67;;
41815;SDS011;27814;53.452;-6.180;2022-11-06T08:21:03;7.78;;;1.20;;
41815;SDS011;27814;53.452;-6.180;2022-11-06T08:23:32;7.32;;;1.10;;
41815;SDS011;27814;53.452;-6.180;2022-11-06T08:26:03;6.38;;;1.20;;
41815;SDS011;27814;53.452;-6.180;2022-11-06T08:28:32;5.93;;;1.10;;
41815;SDS011;27814;53.452;-6.180;2022-11-06T08:31:04;6.20;;;1.38;;
41815;SDS011;27814;53.452;-6.180;2022-11-06T08:33:34;7.78;;;1.25;;
41815;SDS011;27814;53.452;-6.180;2022-11-06T08:36:03;7.03;;;1.10;;
41815;SDS011;27814;53.452;-6.180;2022-11-06T08:38:33;8.65;;;1.35;;
41815;SDS011;27814;53.452;-6.180;2022-11-06T08:41:06;8.38;;;1.35;;
41815;SDS011;27814;53.452;-6.180;2022-11-06T08:43:36;8.55;;;1.60;;
41815;SDS011;27814;53.452;-6.180;2022-11-06T08:46:06;7.90;;;1.33;;
41815;SDS011;27814;53.452;-6.180;2022-11-06T08:48:35;6.40;;;1.30;;
41815;SDS011;27814;53.452;-6.180;2022-11-06T08:51:04;10.05;;;1.52;;
41815;SDS011;27814;53.452;-6.180;2022-11-06T08:53:33;6.38;;;1.38;;
41815;SDS011;27814;53.452;-6.180;2022-11-06T08:56:01;8.38;;;1.30;;
41815;SDS011;27814;53.452;-6.180;2022-11-06T08:58:32;7.15;;;1.17;;
41815;SDS011;27814;53.452;-6.180;2022-11-06T09:01:00;4.78;;;0.93;;
41815;SDS011;27814;53.452;-6.180;2022-11-06T09:03:29;8.70;;;1.88;;
41815;SDS011;27814;53.452;-6.180;2022-11-06T09:05:57;7.70;;;1.40;;
41815;SDS011;27814;53.452;-6.180;2022-11-06T09:08:25;7.63;;;1.00;;
41815;SDS011;27814;53.452;-6.180;2022-11-06T09:10:54;11.65;;;1.40;;
41815;SDS011;27814;53.452;-6.180;2022-11-06T09:13:24;7.47;;;1.10;;
41815;SDS011;27814;53.452;-6.180;2022-11-06T09:15:54;6.05;;;1.20;;
41815;SDS011;27814;53.452;-6.180;2022-11-06T09:18:22;8.60;;;1.50;;
41815;SDS011;27814;53.452;-6.180;2022-11-06T09:20:52;9.43;;;1.40;;
41815;SDS011;27814;53.452;-6.180;2022-11-06T09:23:21;10.20;;;1.58;;
41815;SDS011;27814;53.452;-6.180;2022-11-06T09:25:50;6.53;;;1.60;;
41815;SDS011;27814;53.452;-6.180;2022-11-06T09:28:18;7.55;;;1.33;;
41815;SDS011;27814;53.452;-6.180;2022-11-06T09:30:46;9.60;;;1.40;;
41815;SDS011;27814;53.452;-6.180;2022-11-06T09:33:16;11.18;;;1.75;;
41815;SDS011;27814;53.452;-6.180;2022-11-06T09:35:45;8.02;;;1.15;;
41815;SDS011;27814;53.452;-6.180;2022-11-06T09:38:13;9.82;;;1.38;;
41815;SDS011;27814;53.452;-6.180;2022-11-06T09:40:42;6.10;;;1.30;;
41815;SDS011;27814;53.452;-6.180;2022-11-06T09:43:22;7.63;;;1.08;;
41815;SDS011;27814;53.452;-6.180;2022-11-06T09:46:18;7.65;;;1.50;;
41815;SDS011;27814;53.452;-6.180;2022-11-06T09:48:51;8.32;;;1.30;;
41815;SDS011;27814;53.452;-6.180;2022-11-06T09:51:30;10.05;;;1.88;;
41815;SDS011;27814;53.452;-6.180;2022-11-06T09:54:05;7.13;;;1.33;;
41815;SDS011;27814;53.452;-6.180;2022-11-06T09:56:38;8.15;;;1.05;;
41815;SDS011;27814;53.452;-6.180;2022-11-06T09:59:09;8.90;;;1.85;;
41815;SDS011;27814;53.452;-6.180;2022-11-06T10:01:41;7.60;;;1.50;;
41815;SDS011;27814;53.452;-6.180;2022-11-06T10:04:37;9.40;;;1.50;;
41815;SDS011;27814;53.452;-6.180;2022-11-06T10:07:13;9.70;;;1.40;;
41815;SDS011;27814;53.452;-6.180;2022-11-06T10:09:49;6.68;;;1.25;;
41815;SDS011;27814;53.452;-6.180;2022-11-06T10:12:18;5.83;;;1.17;;
41815;SDS011;27814;53.452;-6.180;2022-11-06T10:14:59;11.18;;;1.63;;
41815;SDS011;27814;53.452;-6.180;2022-11-06T10:17:38;8.38;;;1.95;;
41815;SDS011;27814;53.452;-6.180;2022-11-06T10:20:16;8.25;;;1.67;;
41815;SDS011;27814;53.452;-6.180;2022-11-06T10:22:56;13.65;;;1.88;;
41815;SDS011;27814;53.452;-6.180;2022-11-06T10:25:38;8.43;;;1.30;;
41815;SDS011;27814;53.452;-6.180;2022-11-06T10:28:16;9.65;;;1.55;;
41815;SDS011;27814;53.452;-6.180;2022-11-06T10:31:17;11.50;;;1.77;;
41815;SDS011;27814;53.452;-6.180;2022-11-06T10:33:54;10.43;;;1.80;;
41815;SDS011;27814;53.452;-6.180;2022-11-06T10:36:28;6.85;;;1.40;;
41815;SDS011;27814;53.452;-6.180;2022-11-06T10:39:02;10.82;;;1.60;;
41815;SDS011;27814;53.452;-6.180;2022-11-06T10:41:37;8.13;;;1.70;;
41815;SDS011;27814;53.452;-6.180;2022-11-06T10:44:07;7.15;;;1.38;;
41815;SDS011;27814;53.452;-6.180;2022-11-06T10:46:44;9.40;;;1.52;;
41815;SDS011;27814;53.452;-6.180;2022-11-06T10:49:19;11.15;;;1.60;;
41815;SDS011;27814;53.452;-6.180;2022-11-06T10:52:03;7.72;;;1.25;;
41815;SDS011;27814;53.452;-6.180;2022-11-06T10:54:42;8.82;;;1.25;;
41815;SDS011;27814;53.452;-6.180;2022-11-06T10:57:23;10.00;;;1.58;;
41815;SDS011;27814;53.452;-6.180;2022-11-06T10:59:58;9.30;;;1.30;;
41815;SDS011;27814;53.452;-6.180;2022-11-06T11:02:27;6.75;;;1.40;;
41815;SDS011;27814;53.452;-6.180;2022-11-06T11:04:58;9.10;;;1.30;;
41815;SDS011;27814;53.452;-6.180;2022-11-06T11:07:29;9.38;;;1.67;;
41815;SDS011;27814;53.452;-6.180;2022-11-06T11:10:08;9.02;;;1.40;;
41815;SDS011;27814;53.452;-6.180;2022-11-06T11:12:53;10.25;;;1.20;;
41815;SDS011;27814;53.452;-6.180;2022-11-06T11:15:23;6.22;;;1.55;;
41815;SDS011;27814;53.452;-6.180;2022-11-06T11:18:06;7.10;;;1.40;;
41815;SDS011;27814;53.452;-6.180;2022-11-06T11:20:41;9.97;;;1.70;;
41815;SDS011;27814;53.452;-6.180;2022-11-06T11:23:17;8.70;;;1.75;;
41815;SDS011;27814;53.452;-6.180;2022-11-06T11:25:48;7.93;;;1.50;;
41815;SDS011;27814;53.452;-6.180;2022-11-06T11:31:05;8.57;;;1.40;;
41815;SDS011;27814;53.452;-6.180;2022-11-06T11:33:34;6.97;;;1.55;;
41815;SDS011;27814;53.452;-6.180;2022-11-06T11:36:04;10.25;;;2.00;;
41815;SDS011;27814;53.452;-6.180;2022-11-06T11:38:35;6.93;;;1.58;;
41815;SDS011;27814;53.452;-6.180;2022-11-06T11:41:06;9.10;;;1.90;;
41815;SDS011;27814;53.452;-6.180;2022-11-06T11:43:38;10.40;;;2.33;;
41815;SDS011;27814;53.452;-6.180;2022-11-06T11:46:14;11.10;;;1.80;;
41815;SDS011;27814;53.452;-6.180;2022-11-06T11:48:46;11.93;;;2.30;;
41815;SDS011;27814;53.452;-6.180;2022-11-06T11:51:27;11.95;;;2.03;;
41815;SDS011;27814;53.452;-6.180;2022-11-06T11:54:01;10.70;;;1.38;;
41815;SDS011;27814;53.452;-6.180;2022-11-06T11:56:32;9.65;;;1.50;;
41815;SDS011;27814;53.452;-6.180;2022-11-06T11:59:30;7.45;;;1.60;;
41815;SDS011;27814;53.452;-6.180;2022-11-06T12:02:03;8.85;;;1.42;;
41815;SDS011;27814;53.452;-6.180;2022-11-06T12:04:41;9.33;;;1.70;;
41815;SDS011;27814;53.452;-6.180;2022-11-06T12:07:13;5.97;;;1.45;;
41815;SDS011;27814;53.452;-6.180;2022-11-06T12:09:51;6.50;;;1.43;;
41815;SDS011;27814;53.452;-6.180;2022-11-06T12:12:20;9.37;;;1.70;;
41815;SDS011;27814;53.452;-6.180;2022-11-06T12:15:02;6.45;;;1.35;;
41815;SDS011;27814;53.452;-6.180;2022-11-06T12:17:34;7.60;;;1.27;;
41815;SDS011;27814;53.452;-6.180;2022-11-06T12:20:09;8.35;;;1.42;;
41815;SDS011;27814;53.452;-6.180;2022-11-06T12:22:43;7.93;;;1.20;;
41815;SDS011;27814;53.452;-6.180;2022-11-06T12:25:18;9.52;;;1.17;;
41815;SDS011;27814;53.452;-6.180;2022-11-06T12:27:51;6.82;;;1.08;;
41815;SDS011;27814;53.452;-6.180;2022-11-06T12:30:21;5.60;;;0.90;;
41815;SDS011;27814;53.452;-6.180;2022-11-06T12:32:53;4.47;;;0.93;;
41815;SDS011;27814;53.452;-6.180;2022-11-06T12:35:28;6.28;;;1.08;;
41815;SDS011;27814;53.452;-6.180;2022-11-06T12:38:01;7.40;;;1.23;;
41815;SDS011;27814;53.452;-6.180;2022-11-06T12:40:40;5.07;;;0.90;;
41815;SDS011;27814;53.452;-6.180;2022-11-06T12:43:18;5.57;;;1.00;;
41815;SDS011;27814;53.452;-6.180;2022-11-06T12:46:09;5.53;;;1.10;;
41815;SDS011;27814;53.452;-6.180;2022-11-06T12:51:40;5.88;;;1.30;;
41815;SDS011;27814;53.452;-6.180;2022-11-06T12:54:29;7.70;;;1.08;;
41815;SDS011;27814;53.452;-6.180;2022-11-06T12:57:12;8.35;;;1.30;;
41815;SDS011;27814;53.452;-6.180;2022-11-06T12:59:55;6.50;;;1.20;;
41815;SDS011;27814;53.452;-6.180;2022-11-06T13:02:37;4.47;;;1.00;;
41815;SDS011;27814;53.452;-6.180;2022-11-06T13:05:23;8.55;;;1.52;;
41815;SDS011;27814;53.452;-6.180;2022-11-06T13:08:00;6.70;;;1.05;;
41815;SDS011;27814;53.452;-6.180;2022-11-06T13:10:42;8.80;;;1.17;;
41815;SDS011;27814;53.452;-6.180;2022-11-06T13:13:30;5.73;;;1.00;;
41815;SDS011;27814;53.452;-6.180;2022-11-06T13:16:06;7.97;;;1.30;;
41815;SDS011;27814;53.452;-6.180;2022-11-06T13:18:45;7.63;;;0.90;;
41815;SDS011;27814;53.452;-6.180;2022-11-06T13:21:20;5.57;;;1.13;;
41815;SDS011;27814;53.452;-6.180;2022-11-06T13:23:56;8.40;;;1.10;;
41815;SDS011;27814;53.452;-6.180;2022-11-06T13:26:30;4.90;;;1.00;;
41815;SDS011;27814;53.452;-6.180;2022-11-06T13:29:04;4.88;;;1.20;;
41815;SDS011;27814;53.452;-6.180;2022-11-06T13:31:37;7.25;;;1.20;;
41815;SDS011;27814;53.452;-6.180;2022-11-06T13:34:10;7.10;;;1.10;;
41815;SDS011;27814;53.452;-6.180;2022-11-06T13:36:43;8.18;;;1.40;;
41815;SDS011;27814;53.452;-6.180;2022-11-06T13:39:14;7.15;;;1.20;;
41815;SDS011;27814;53.452;-6.180;2022-11-06T13:41:47;6.07;;;1.08;;
41815;SDS011;27814;53.452;-6.180;2022-11-06T13:44:17;6.20;;;1.10;;
41815;SDS011;27814;53.452;-6.180;2022-11-06T13:46:48;5.25;;;0.88;;
41815;SDS011;27814;53.452;-6.180;2022-11-06T13:49:25;4.82;;;1.00;;
41815;SDS011;27814;53.452;-6.180;2022-11-06T13:51:58;4.72;;;1.02;;
41815;SDS011;27814;53.452;-6.180;2022-11-06T13:54:39;6.00;;;1.10;;
41815;SDS011;27814;53.452;-6.180;2022-11-06T13:57:22;3.55;;;0.98;;
41815;SDS011;27814;53.452;-6.180;2022-11-06T14:00:19;7.25;;;1.13;;
41815;SDS011;27814;53.452;-6.180;2022-11-06T14:02:58;4.90;;;1.00;;
41815;SDS011;27814;53.452;-6.180;2022-11-06T14:05:52;5.70;;;1.13;;
41815;SDS011;27814;53.452;-6.180;2022-11-06T14:08:27;7.07;;;1.23;;
41815;SDS011;27814;53.452;-6.180;2022-11-06T14:10:59;4.75;;;1.10;;
41815;SDS011;27814;53.452;-6.180;2022-11-06T14:13:32;5.50;;;1.08;;
41815;SDS011;27814;53.452;-6.180;2022-11-06T14:16:06;4.78;;;1.20;;
41815;SDS011;27814;53.452;-6.180;2022-11-06T14:18:53;7.50;;;1.30;;
41815;SDS011;27814;53.452;-6.180;2022-11-06T14:21:43;4.70;;;1.15;;
41815;SDS011;27814;53.452;-6.180;2022-11-06T14:24:26;6.85;;;1.20;;
41815;SDS011;27814;53.452;-6.180;2022-11-06T14:26:57;5.57;;;1.42;;
41815;SDS011;27814;53.452;-6.180;2022-11-06T14:32:44;5.97;;;0.85;;
41815;SDS011;27814;53.452;-6.180;2022-11-06T14:38:29;6.70;;;1.02;;
41815;SDS011;27814;53.452;-6.180;2022-11-06T14:44:19;7.50;;;1.10;;
41815;SDS011;27814;53.452;-6.180;2022-11-06T14:46:53;5.10;;;1.05;;
41815;SDS011;27814;53.452;-6.180;2022-11-06T14:49:29;7.13;;;1.17;;
41815;SDS011;27814;53.452;-6.180;2022-11-06T14:52:02;6.85;;;1.27;;
41815;SDS011;27814;53.452;-6.180;2022-11-06T14:54:34;6.90;;;1.00;;
41815;SDS011;27814;53.452;-6.180;2022-11-06T14:57:06;6.95;;;1.40;;
41815;SDS011;27814;53.452;-6.180;2022-11-06T14:59:36;4.53;;;0.90;;
41815;SDS011;27814;53.452;-6.180;2022-11-06T15:02:13;5.50;;;1.10;;
41815;SDS011;27814;53.452;-6.180;2022-11-06T15:04:48;6.07;;;1.30;;
41815;SDS011;27814;53.452;-6.180;2022-11-06T15:10:51;6.10;;;1.27;;
41815;SDS011;27814;53.452;-6.180;2022-11-06T15:13:27;6.50;;;1.17;;
41815;SDS011;27814;53.452;-6.180;2022-11-06T15:16:04;5.13;;;0.80;;
41815;SDS011;27814;53.452;-6.180;2022-11-06T15:18:39;5.25;;;1.48;;
41815;SDS011;27814;53.452;-6.180;2022-11-06T15:21:16;3.83;;;1.00;;
41815;SDS011;27814;53.452;-6.180;2022-11-06T15:23:56;4.07;;;0.80;;
41815;SDS011;27814;53.452;-6.180;2022-11-06T15:26:32;3.85;;;1.20;;